Terminal Aerodrome Forecast
Issued by NWS

Home | Current Version | Previous Version | Text Only | Print | Product List | Glossary On
Versions: 1 2 3 4 5 6 7 8 9 10 11 12 13 14 15
000
FTUS43 KMQT 142300
TAFSAW
TAF
KSAW 142323Z 1500/1524 26006KT P6SM BKN040
     FM150600 28005KT P6SM SCT040
     FM151500 33007KT P6SM BKN040
      AMD LTD TO CLD VIS AND WIND 1502/1510=

USA.gov is the U.S. government's official web portal to all federal, state and local government web resources and services.